sensor_id;sensor_type;location;lat;lon;timestamp;P1;durP1;ratioP1;P2;durP2;ratioP2
18732;SDS011;9495;51.210;2.934;2023-07-31T00:00:01;22.52;;;8.80;;
18732;SDS011;9495;51.210;2.934;2023-07-31T00:02:30;24.48;;;9.63;;
18732;SDS011;9495;51.210;2.934;2023-07-31T00:04:59;26.33;;;8.75;;
18732;SDS011;9495;51.210;2.934;2023-07-31T00:07:28;29.58;;;10.50;;
18732;SDS011;9495;51.210;2.934;2023-07-31T00:09:57;18.05;;;7.40;;
18732;SDS011;9495;51.210;2.934;2023-07-31T00:12:25;22.10;;;7.57;;
18732;SDS011;9495;51.210;2.934;2023-07-31T00:14:53;22.88;;;8.15;;
18732;SDS011;9495;51.210;2.934;2023-07-31T00:17:23;22.70;;;8.05;;
18732;SDS011;9495;51.210;2.934;2023-07-31T00:19:52;22.05;;;8.15;;
18732;SDS011;9495;51.210;2.934;2023-07-31T00:22:20;30.88;;;8.15;;
18732;SDS011;9495;51.210;2.934;2023-07-31T00:24:49;27.98;;;8.23;;
18732;SDS011;9495;51.210;2.934;2023-07-31T00:27:17;21.40;;;7.72;;
18732;SDS011;9495;51.210;2.934;2023-07-31T00:29:46;27.13;;;7.60;;
18732;SDS011;9495;51.210;2.934;2023-07-31T00:32:14;26.65;;;7.80;;
18732;SDS011;9495;51.210;2.934;2023-07-31T00:34:44;25.75;;;8.75;;
18732;SDS011;9495;51.210;2.934;2023-07-31T00:37:13;24.65;;;7.13;;
18732;SDS011;9495;51.210;2.934;2023-07-31T00:39:41;24.30;;;8.00;;
18732;SDS011;9495;51.210;2.934;2023-07-31T00:42:10;23.92;;;7.18;;
18732;SDS011;9495;51.210;2.934;2023-07-31T00:44:38;19.25;;;7.28;;
18732;SDS011;9495;51.210;2.934;2023-07-31T00:47:07;22.67;;;8.00;;
18732;SDS011;9495;51.210;2.934;2023-07-31T00:49:35;25.40;;;7.90;;
18732;SDS011;9495;51.210;2.934;2023-07-31T00:52:06;26.58;;;8.93;;
18732;SDS011;9495;51.210;2.934;2023-07-31T00:54:36;22.27;;;7.70;;
18732;SDS011;9495;51.210;2.934;2023-07-31T00:57:05;25.25;;;7.50;;
18732;SDS011;9495;51.210;2.934;2023-07-31T00:59:35;23.45;;;6.78;;
18732;SDS011;9495;51.210;2.934;2023-07-31T01:02:03;23.52;;;7.88;;
18732;SDS011;9495;51.210;2.934;2023-07-31T01:04:32;24.17;;;7.82;;
18732;SDS011;9495;51.210;2.934;2023-07-31T01:07:02;26.23;;;7.53;;
18732;SDS011;9495;51.210;2.934;2023-07-31T01:09:37;27.25;;;7.88;;
18732;SDS011;9495;51.210;2.934;2023-07-31T01:12:12;20.38;;;7.25;;
18732;SDS011;9495;51.210;2.934;2023-07-31T01:14:50;21.52;;;7.10;;
18732;SDS011;9495;51.210;2.934;2023-07-31T01:17:19;20.75;;;7.60;;
18732;SDS011;9495;51.210;2.934;2023-07-31T01:19:48;20.30;;;7.93;;
18732;SDS011;9495;51.210;2.934;2023-07-31T01:22:30;19.23;;;6.88;;
18732;SDS011;9495;51.210;2.934;2023-07-31T01:25:16;19.35;;;6.82;;
18732;SDS011;9495;51.210;2.934;2023-07-31T01:28:02;30.48;;;6.53;;
18732;SDS011;9495;51.210;2.934;2023-07-31T01:30:33;16.90;;;6.90;;
18732;SDS011;9495;51.210;2.934;2023-07-31T01:33:05;19.60;;;7.32;;
18732;SDS011;9495;51.210;2.934;2023-07-31T01:35:34;19.50;;;6.50;;
18732;SDS011;9495;51.210;2.934;2023-07-31T01:38:04;17.50;;;6.82;;
18732;SDS011;9495;51.210;2.934;2023-07-31T01:40:33;17.77;;;6.47;;
18732;SDS011;9495;51.210;2.934;2023-07-31T01:43:03;15.93;;;5.80;;
18732;SDS011;9495;51.210;2.934;2023-07-31T01:45:31;24.95;;;7.78;;
18732;SDS011;9495;51.210;2.934;2023-07-31T01:48:00;15.00;;;6.38;;
18732;SDS011;9495;51.210;2.934;2023-07-31T01:50:29;19.98;;;6.05;;
18732;SDS011;9495;51.210;2.934;2023-07-31T01:52:57;15.07;;;5.15;;
18732;SDS011;9495;51.210;2.934;2023-07-31T01:55:25;21.52;;;7.03;;
18732;SDS011;9495;51.210;2.934;2023-07-31T01:57:54;18.40;;;5.97;;
18732;SDS011;9495;51.210;2.934;2023-07-31T02:00:24;14.70;;;5.75;;
18732;SDS011;9495;51.210;2.934;2023-07-31T02:02:52;19.40;;;6.45;;
18732;SDS011;9495;51.210;2.934;2023-07-31T02:05:21;16.92;;;5.80;;
18732;SDS011;9495;51.210;2.934;2023-07-31T02:07:49;19.52;;;6.25;;
18732;SDS011;9495;51.210;2.934;2023-07-31T02:10:18;21.20;;;5.85;;
18732;SDS011;9495;51.210;2.934;2023-07-31T02:12:46;17.10;;;6.22;;
18732;SDS011;9495;51.210;2.934;2023-07-31T02:15:15;17.75;;;5.60;;
18732;SDS011;9495;51.210;2.934;2023-07-31T02:17:45;13.02;;;4.88;;
18732;SDS011;9495;51.210;2.934;2023-07-31T02:20:13;17.83;;;5.82;;
18732;SDS011;9495;51.210;2.934;2023-07-31T02:22:42;20.27;;;6.00;;
18732;SDS011;9495;51.210;2.934;2023-07-31T02:25:10;12.93;;;4.50;;
18732;SDS011;9495;51.210;2.934;2023-07-31T02:27:39;17.60;;;5.60;;
18732;SDS011;9495;51.210;2.934;2023-07-31T02:30:07;15.98;;;5.65;;
18732;SDS011;9495;51.210;2.934;2023-07-31T02:32:36;19.42;;;5.70;;
18732;SDS011;9495;51.210;2.934;2023-07-31T02:35:07;19.88;;;5.97;;
18732;SDS011;9495;51.210;2.934;2023-07-31T02:37:36;16.25;;;5.47;;
18732;SDS011;9495;51.210;2.934;2023-07-31T02:40:05;17.20;;;5.80;;
18732;SDS011;9495;51.210;2.934;2023-07-31T02:42:35;16.58;;;5.60;;
18732;SDS011;9495;51.210;2.934;2023-07-31T02:45:04;16.02;;;5.03;;
18732;SDS011;9495;51.210;2.934;2023-07-31T02:47:33;16.70;;;5.30;;
18732;SDS011;9495;51.210;2.934;2023-07-31T02:50:02;17.95;;;5.07;;
18732;SDS011;9495;51.210;2.934;2023-07-31T02:52:32;18.48;;;5.90;;
18732;SDS011;9495;51.210;2.934;2023-07-31T02:55:01;23.42;;;6.00;;
18732;SDS011;9495;51.210;2.934;2023-07-31T02:57:29;17.55;;;5.40;;
18732;SDS011;9495;51.210;2.934;2023-07-31T02:59:58;16.48;;;5.25;;
18732;SDS011;9495;51.210;2.934;2023-07-31T03:02:27;16.30;;;6.03;;
18732;SDS011;9495;51.210;2.934;2023-07-31T03:04:55;11.65;;;5.43;;
18732;SDS011;9495;51.210;2.934;2023-07-31T03:07:23;14.15;;;5.43;;
18732;SDS011;9495;51.210;2.934;2023-07-31T03:09:53;12.85;;;5.20;;
18732;SDS011;9495;51.210;2.934;2023-07-31T03:12:22;16.15;;;4.90;;
18732;SDS011;9495;51.210;2.934;2023-07-31T03:14:50;14.18;;;4.85;;
18732;SDS011;9495;51.210;2.934;2023-07-31T03:17:19;13.23;;;4.90;;
18732;SDS011;9495;51.210;2.934;2023-07-31T03:19:47;8.43;;;4.22;;
18732;SDS011;9495;51.210;2.934;2023-07-31T03:22:16;15.98;;;5.40;;
18732;SDS011;9495;51.210;2.934;2023-07-31T03:24:45;9.63;;;4.35;;
18732;SDS011;9495;51.210;2.934;2023-07-31T03:27:14;14.55;;;4.80;;
18732;SDS011;9495;51.210;2.934;2023-07-31T03:29:43;12.57;;;4.85;;
18732;SDS011;9495;51.210;2.934;2023-07-31T03:32:11;10.93;;;4.32;;
18732;SDS011;9495;51.210;2.934;2023-07-31T03:34:40;12.57;;;4.72;;
18732;SDS011;9495;51.210;2.934;2023-07-31T03:37:09;8.40;;;3.92;;
18732;SDS011;9495;51.210;2.934;2023-07-31T03:39:37;9.38;;;4.32;;
18732;SDS011;9495;51.210;2.934;2023-07-31T03:42:06;13.57;;;4.55;;
18732;SDS011;9495;51.210;2.934;2023-07-31T03:44:36;11.88;;;4.57;;
18732;SDS011;9495;51.210;2.934;2023-07-31T03:47:04;11.07;;;4.45;;
18732;SDS011;9495;51.210;2.934;2023-07-31T03:49:33;10.95;;;4.75;;
18732;SDS011;9495;51.210;2.934;2023-07-31T03:52:02;10.55;;;3.80;;
18732;SDS011;9495;51.210;2.934;2023-07-31T03:54:30;9.80;;;4.32;;
18732;SDS011;9495;51.210;2.934;2023-07-31T03:56:59;12.15;;;4.68;;
18732;SDS011;9495;51.210;2.934;2023-07-31T03:59:27;10.18;;;4.90;;
18732;SDS011;9495;51.210;2.934;2023-07-31T04:01:57;10.20;;;4.40;;
18732;SDS011;9495;51.210;2.934;2023-07-31T04:04:25;9.52;;;3.80;;
18732;SDS011;9495;51.210;2.934;2023-07-31T04:06:54;9.05;;;4.03;;
18732;SDS011;9495;51.210;2.934;2023-07-31T04:09:22;11.48;;;4.22;;
18732;SDS011;9495;51.210;2.934;2023-07-31T04:11:51;11.13;;;3.58;;
18732;SDS011;9495;51.210;2.934;2023-07-31T04:14:19;11.52;;;4.25;;
18732;SDS011;9495;51.210;2.934;2023-07-31T04:16:48;10.80;;;4.68;;
18732;SDS011;9495;51.210;2.934;2023-07-31T04:19:20;12.55;;;4.47;;
18732;SDS011;9495;51.210;2.934;2023-07-31T04:21:48;12.00;;;4.50;;
18732;SDS011;9495;51.210;2.934;2023-07-31T04:24:17;11.82;;;5.05;;
18732;SDS011;9495;51.210;2.934;2023-07-31T04:26:51;13.20;;;4.55;;
18732;SDS011;9495;51.210;2.934;2023-07-31T04:29:20;13.57;;;4.35;;
18732;SDS011;9495;51.210;2.934;2023-07-31T04:31:50;11.80;;;4.28;;
18732;SDS011;9495;51.210;2.934;2023-07-31T04:34:20;12.57;;;4.68;;
18732;SDS011;9495;51.210;2.934;2023-07-31T04:36:48;10.93;;;3.85;;
18732;SDS011;9495;51.210;2.934;2023-07-31T04:39:17;13.07;;;4.63;;
18732;SDS011;9495;51.210;2.934;2023-07-31T04:41:45;14.98;;;4.65;;
18732;SDS011;9495;51.210;2.934;2023-07-31T04:44:14;8.90;;;3.45;;
18732;SDS011;9495;51.210;2.934;2023-07-31T04:46:43;12.95;;;4.50;;
18732;SDS011;9495;51.210;2.934;2023-07-31T04:49:11;14.75;;;4.28;;
18732;SDS011;9495;51.210;2.934;2023-07-31T04:51:41;11.45;;;4.78;;
18732;SDS011;9495;51.210;2.934;2023-07-31T04:54:10;13.73;;;4.60;;
18732;SDS011;9495;51.210;2.934;2023-07-31T04:56:41;19.52;;;4.93;;
18732;SDS011;9495;51.210;2.934;2023-07-31T04:59:10;12.82;;;4.43;;
18732;SDS011;9495;51.210;2.934;2023-07-31T05:01:38;10.82;;;4.18;;
18732;SDS011;9495;51.210;2.934;2023-07-31T05:04:06;14.73;;;4.70;;
18732;SDS011;9495;51.210;2.934;2023-07-31T05:06:35;16.83;;;4.90;;
18732;SDS011;9495;51.210;2.934;2023-07-31T05:09:05;9.63;;;4.03;;
18732;SDS011;9495;51.210;2.934;2023-07-31T05:11:36;12.13;;;5.07;;
18732;SDS011;9495;51.210;2.934;2023-07-31T05:14:04;9.88;;;3.88;;
18732;SDS011;9495;51.210;2.934;2023-07-31T05:16:32;7.30;;;2.83;;
18732;SDS011;9495;51.210;2.934;2023-07-31T05:19:01;7.10;;;3.38;;
18732;SDS011;9495;51.210;2.934;2023-07-31T05:21:29;10.10;;;4.35;;
18732;SDS011;9495;51.210;2.934;2023-07-31T05:23:58;8.18;;;3.53;;
18732;SDS011;9495;51.210;2.934;2023-07-31T05:26:28;12.63;;;4.00;;
18732;SDS011;9495;51.210;2.934;2023-07-31T05:28:56;12.18;;;4.65;;
18732;SDS011;9495;51.210;2.934;2023-07-31T05:31:25;11.63;;;4.60;;
18732;SDS011;9495;51.210;2.934;2023-07-31T05:33:53;11.77;;;4.70;;
18732;SDS011;9495;51.210;2.934;2023-07-31T05:36:22;9.93;;;4.75;;
18732;SDS011;9495;51.210;2.934;2023-07-31T05:38:51;10.52;;;4.30;;
18732;SDS011;9495;51.210;2.934;2023-07-31T05:41:19;13.60;;;4.25;;
18732;SDS011;9495;51.210;2.934;2023-07-31T05:43:49;12.15;;;4.13;;
18732;SDS011;9495;51.210;2.934;2023-07-31T05:46:18;12.80;;;4.75;;
18732;SDS011;9495;51.210;2.934;2023-07-31T05:48:46;14.50;;;4.53;;
18732;SDS011;9495;51.210;2.934;2023-07-31T05:51:15;9.38;;;4.72;;
18732;SDS011;9495;51.210;2.934;2023-07-31T05:53:43;12.18;;;4.65;;
18732;SDS011;9495;51.210;2.934;2023-07-31T05:56:12;12.07;;;5.05;;
18732;SDS011;9495;51.210;2.934;2023-07-31T05:58:41;13.90;;;4.97;;
18732;SDS011;9495;51.210;2.934;2023-07-31T06:01:10;10.48;;;4.53;;
18732;SDS011;9495;51.210;2.934;2023-07-31T06:03:39;9.40;;;4.32;;
18732;SDS011;9495;51.210;2.934;2023-07-31T06:06:08;14.98;;;5.35;;
18732;SDS011;9495;51.210;2.934;2023-07-31T06:08:36;9.45;;;4.70;;
18732;SDS011;9495;51.210;2.934;2023-07-31T06:11:05;16.13;;;5.03;;
18732;SDS011;9495;51.210;2.934;2023-07-31T06:13:35;12.13;;;5.00;;
18732;SDS011;9495;51.210;2.934;2023-07-31T06:16:06;11.98;;;5.38;;
18732;SDS011;9495;51.210;2.934;2023-07-31T06:18:36;17.17;;;5.43;;
18732;SDS011;9495;51.210;2.934;2023-07-31T06:21:04;17.45;;;6.00;;
18732;SDS011;9495;51.210;2.934;2023-07-31T06:23:33;15.63;;;5.10;;
18732;SDS011;9495;51.210;2.934;2023-07-31T06:26:02;12.82;;;5.72;;
18732;SDS011;9495;51.210;2.934;2023-07-31T06:28:31;14.80;;;4.97;;
18732;SDS011;9495;51.210;2.934;2023-07-31T06:31:00;9.57;;;4.50;;
18732;SDS011;9495;51.210;2.934;2023-07-31T06:33:28;13.95;;;5.25;;
18732;SDS011;9495;51.210;2.934;2023-07-31T06:35:58;13.40;;;4.75;;
18732;SDS011;9495;51.210;2.934;2023-07-31T06:38:27;14.55;;;5.38;;
18732;SDS011;9495;51.210;2.934;2023-07-31T06:40:55;15.40;;;4.57;;
18732;SDS011;9495;51.210;2.934;2023-07-31T06:43:24;12.27;;;4.60;;
18732;SDS011;9495;51.210;2.934;2023-07-31T06:45:55;14.07;;;4.85;;
18732;SDS011;9495;51.210;2.934;2023-07-31T06:48:23;11.10;;;5.15;;
18732;SDS011;9495;51.210;2.934;2023-07-31T06:50:51;11.57;;;4.32;;
18732;SDS011;9495;51.210;2.934;2023-07-31T06:53:21;7.15;;;3.97;;
18732;SDS011;9495;51.210;2.934;2023-07-31T06:55:50;9.10;;;4.30;;
18732;SDS011;9495;51.210;2.934;2023-07-31T06:58:19;8.57;;;4.32;;
18732;SDS011;9495;51.210;2.934;2023-07-31T07:00:47;12.88;;;4.13;;
18732;SDS011;9495;51.210;2.934;2023-07-31T07:03:17;8.02;;;3.45;;
18732;SDS011;9495;51.210;2.934;2023-07-31T07:05:46;9.55;;;3.97;;
18732;SDS011;9495;51.210;2.934;2023-07-31T07:08:15;8.07;;;3.85;;
18732;SDS011;9495;51.210;2.934;2023-07-31T07:10:45;9.05;;;2.95;;
18732;SDS011;9495;51.210;2.934;2023-07-31T07:13:14;7.10;;;2.75;;
18732;SDS011;9495;51.210;2.934;2023-07-31T07:15:47;7.20;;;3.03;;
18732;SDS011;9495;51.210;2.934;2023-07-31T07:18:16;5.78;;;2.45;;
18732;SDS011;9495;51.210;2.934;2023-07-31T07:20:49;7.20;;;2.67;;
18732;SDS011;9495;51.210;2.934;2023-07-31T07:23:18;5.10;;;2.65;;
18732;SDS011;9495;51.210;2.934;2023-07-31T07:25:49;4.72;;;2.92;;
18732;SDS011;9495;51.210;2.934;2023-07-31T07:28:18;6.00;;;2.55;;
18732;SDS011;9495;51.210;2.934;2023-07-31T07:30:50;6.63;;;3.47;;
18732;SDS011;9495;51.210;2.934;2023-07-31T07:33:20;6.70;;;2.75;;
18732;SDS011;9495;51.210;2.934;2023-07-31T07:35:48;4.40;;;2.60;;
18732;SDS011;9495;51.210;2.934;2023-07-31T07:38:17;2.85;;;2.10;;
18732;SDS011;9495;51.210;2.934;2023-07-31T07:40:47;4.18;;;2.20;;
18732;SDS011;9495;51.210;2.934;2023-07-31T07:43:19;2.35;;;1.92;;
18732;SDS011;9495;51.210;2.934;2023-07-31T07:45:48;2.53;;;1.83;;
18732;SDS011;9495;51.210;2.934;2023-07-31T07:48:17;2.95;;;1.50;;
18732;SDS011;9495;51.210;2.934;2023-07-31T07:50:45;1.50;;;1.35;;
18732;SDS011;9495;51.210;2.934;2023-07-31T07:53:14;2.97;;;1.80;;
18732;SDS011;9495;51.210;2.934;2023-07-31T07:55:42;2.30;;;1.40;;
18732;SDS011;9495;51.210;2.934;2023-07-31T07:58:12;1.77;;;1.40;;
18732;SDS011;9495;51.210;2.934;2023-07-31T08:00:40;2.28;;;1.40;;
18732;SDS011;9495;51.210;2.934;2023-07-31T08:03:09;1.92;;;1.42;;
18732;SDS011;9495;51.210;2.934;2023-07-31T08:05:38;3.97;;;1.58;;
18732;SDS011;9495;51.210;2.934;2023-07-31T08:08:06;2.70;;;1.55;;
18732;SDS011;9495;51.210;2.934;2023-07-31T08:10:35;1.73;;;1.40;;
18732;SDS011;9495;51.210;2.934;2023-07-31T08:13:03;1.48;;;1.20;;
18732;SDS011;9495;51.210;2.934;2023-07-31T08:15:33;3.97;;;2.58;;
18732;SDS011;9495;51.210;2.934;2023-07-31T08:18:02;2.95;;;1.65;;
18732;SDS011;9495;51.210;2.934;2023-07-31T08:20:31;5.10;;;1.48;;
18732;SDS011;9495;51.210;2.934;2023-07-31T08:22:59;1.63;;;1.33;;
18732;SDS011;9495;51.210;2.934;2023-07-31T08:25:28;3.63;;;1.52;;
18732;SDS011;9495;51.210;2.934;2023-07-31T08:27:56;3.47;;;1.70;;
18732;SDS011;9495;51.210;2.934;2023-07-31T08:30:25;5.70;;;2.13;;
18732;SDS011;9495;51.210;2.934;2023-07-31T08:32:55;4.18;;;1.90;;
18732;SDS011;9495;51.210;2.934;2023-07-31T08:35:24;5.50;;;1.75;;
18732;SDS011;9495;51.210;2.934;2023-07-31T08:37:54;3.28;;;1.83;;
18732;SDS011;9495;51.210;2.934;2023-07-31T08:40:23;3.10;;;1.70;;
18732;SDS011;9495;51.210;2.934;2023-07-31T08:42:52;3.40;;;1.77;;
18732;SDS011;9495;51.210;2.934;2023-07-31T08:45:23;3.15;;;1.73;;
18732;SDS011;9495;51.210;2.934;2023-07-31T08:47:51;4.97;;;1.92;;
18732;SDS011;9495;51.210;2.934;2023-07-31T08:50:21;3.80;;;1.67;;
18732;SDS011;9495;51.210;2.934;2023-07-31T08:52:50;3.28;;;1.83;;
18732;SDS011;9495;51.210;2.934;2023-07-31T08:55:23;4.13;;;1.80;;
18732;SDS011;9495;51.210;2.934;2023-07-31T08:57:53;3.95;;;1.90;;
18732;SDS011;9495;51.210;2.934;2023-07-31T09:00:23;4.65;;;1.90;;
18732;SDS011;9495;51.210;2.934;2023-07-31T09:02:54;4.50;;;2.10;;
18732;SDS011;9495;51.210;2.934;2023-07-31T09:05:30;4.47;;;2.00;;
18732;SDS011;9495;51.210;2.934;2023-07-31T09:08:00;4.78;;;1.95;;
18732;SDS011;9495;51.210;2.934;2023-07-31T09:10:32;3.25;;;1.70;;
18732;SDS011;9495;51.210;2.934;2023-07-31T09:13:00;2.67;;;1.77;;
18732;SDS011;9495;51.210;2.934;2023-07-31T09:15:30;2.75;;;1.40;;
18732;SDS011;9495;51.210;2.934;2023-07-31T09:18:05;3.83;;;1.83;;
18732;SDS011;9495;51.210;2.934;2023-07-31T09:20:36;4.40;;;1.98;;
18732;SDS011;9495;51.210;2.934;2023-07-31T09:23:05;4.00;;;1.73;;
18732;SDS011;9495;51.210;2.934;2023-07-31T09:25:35;3.40;;;1.80;;
18732;SDS011;9495;51.210;2.934;2023-07-31T09:28:05;2.40;;;1.38;;
18732;SDS011;9495;51.210;2.934;2023-07-31T09:30:46;3.33;;;1.60;;
18732;SDS011;9495;51.210;2.934;2023-07-31T09:33:17;4.72;;;1.60;;
18732;SDS011;9495;51.210;2.934;2023-07-31T09:35:47;3.75;;;1.67;;
18732;SDS011;9495;51.210;2.934;2023-07-31T09:38:16;3.28;;;2.03;;
18732;SDS011;9495;51.210;2.934;2023-07-31T09:40:45;3.15;;;1.70;;
18732;SDS011;9495;51.210;2.934;2023-07-31T09:43:16;4.65;;;2.22;;
18732;SDS011;9495;51.210;2.934;2023-07-31T09:45:46;4.35;;;1.98;;
18732;SDS011;9495;51.210;2.934;2023-07-31T09:48:16;6.63;;;2.47;;
18732;SDS011;9495;51.210;2.934;2023-07-31T09:50:46;5.55;;;2.08;;
18732;SDS011;9495;51.210;2.934;2023-07-31T09:53:16;6.53;;;2.13;;
18732;SDS011;9495;51.210;2.934;2023-07-31T09:55:45;4.35;;;1.80;;
18732;SDS011;9495;51.210;2.934;2023-07-31T09:58:13;4.50;;;1.83;;
18732;SDS011;9495;51.210;2.934;2023-07-31T10:00:42;5.13;;;1.60;;
18732;SDS011;9495;51.210;2.934;2023-07-31T10:03:12;7.45;;;1.98;;
18732;SDS011;9495;51.210;2.934;2023-07-31T10:05:42;3.38;;;1.67;;
18732;SDS011;9495;51.210;2.934;2023-07-31T10:08:18;3.97;;;1.95;;
18732;SDS011;9495;51.210;2.934;2023-07-31T10:10:49;3.70;;;2.17;;
18732;SDS011;9495;51.210;2.934;2023-07-31T10:13:17;4.05;;;1.50;;
18732;SDS011;9495;51.210;2.934;2023-07-31T10:15:48;2.33;;;1.52;;
18732;SDS011;9495;51.210;2.934;2023-07-31T10:18:18;3.65;;;1.80;;
18732;SDS011;9495;51.210;2.934;2023-07-31T10:20:47;2.75;;;1.55;;
18732;SDS011;9495;51.210;2.934;2023-07-31T10:23:17;3.55;;;1.88;;
18732;SDS011;9495;51.210;2.934;2023-07-31T10:25:46;3.15;;;1.60;;
18732;SDS011;9495;51.210;2.934;2023-07-31T10:28:16;4.22;;;1.92;;
18732;SDS011;9495;51.210;2.934;2023-07-31T10:30:44;3.63;;;1.80;;
18732;SDS011;9495;51.210;2.934;2023-07-31T10:33:13;5.25;;;2.15;;
18732;SDS011;9495;51.210;2.934;2023-07-31T10:35:42;3.83;;;1.95;;
18732;SDS011;9495;51.210;2.934;2023-07-31T10:38:11;6.47;;;1.90;;
18732;SDS011;9495;51.210;2.934;2023-07-31T10:40:41;3.70;;;1.80;;
18732;SDS011;9495;51.210;2.934;2023-07-31T10:43:15;4.72;;;1.70;;
18732;SDS011;9495;51.210;2.934;2023-07-31T10:45:53;4.90;;;2.40;;
18732;SDS011;9495;51.210;2.934;2023-07-31T10:48:22;7.82;;;1.98;;
18732;SDS011;9495;51.210;2.934;2023-07-31T10:50:51;4.88;;;2.13;;
18732;SDS011;9495;51.210;2.934;2023-07-31T10:53:24;5.05;;;1.90;;
18732;SDS011;9495;51.210;2.934;2023-07-31T10:55:59;4.50;;;1.85;;
18732;SDS011;9495;51.210;2.934;2023-07-31T10:58:28;5.78;;;2.08;;
18732;SDS011;9495;51.210;2.934;2023-07-31T11:00:58;4.90;;;2.20;;
18732;SDS011;9495;51.210;2.934;2023-07-31T11:03:40;3.60;;;1.67;;
18732;SDS011;9495;51.210;2.934;2023-07-31T11:06:10;3.72;;;1.58;;
18732;SDS011;9495;51.210;2.934;2023-07-31T11:08:43;3.35;;;1.90;;
18732;SDS011;9495;51.210;2.934;2023-07-31T11:11:14;3.42;;;1.67;;
18732;SDS011;9495;51.210;2.934;2023-07-31T11:13:48;3.25;;;1.95;;
18732;SDS011;9495;51.210;2.934;2023-07-31T11:16:18;4.43;;;2.15;;
18732;SDS011;9495;51.210;2.934;2023-07-31T11:18:48;5.05;;;2.30;;
18732;SDS011;9495;51.210;2.934;2023-07-31T11:21:18;2.65;;;1.90;;
18732;SDS011;9495;51.210;2.934;2023-07-31T11:23:48;4.10;;;1.92;;
18732;SDS011;9495;51.210;2.934;2023-07-31T11:26:20;4.47;;;2.20;;
18732;SDS011;9495;51.210;2.934;2023-07-31T11:28:50;4.68;;;2.30;;
18732;SDS011;9495;51.210;2.934;2023-07-31T11:31:19;3.70;;;1.90;;
18732;SDS011;9495;51.210;2.934;2023-07-31T11:33:48;2.53;;;1.67;;
18732;SDS011;9495;51.210;2.934;2023-07-31T11:36:17;2.90;;;1.70;;
18732;SDS011;9495;51.210;2.934;2023-07-31T11:38:46;3.72;;;1.70;;
18732;SDS011;9495;51.210;2.934;2023-07-31T11:41:15;3.35;;;2.10;;
18732;SDS011;9495;51.210;2.934;2023-07-31T11:43:46;2.92;;;1.60;;
18732;SDS011;9495;51.210;2.934;2023-07-31T11:46:14;3.38;;;1.80;;
18732;SDS011;9495;51.210;2.934;2023-07-31T11:48:44;2.75;;;1.30;;
18732;SDS011;9495;51.210;2.934;2023-07-31T11:51:13;5.43;;;2.20;;
18732;SDS011;9495;51.210;2.934;2023-07-31T11:53:43;3.60;;;1.90;;
18732;SDS011;9495;51.210;2.934;2023-07-31T11:56:13;2.92;;;1.77;;
18732;SDS011;9495;51.210;2.934;2023-07-31T11:58:46;3.75;;;1.85;;
18732;SDS011;9495;51.210;2.934;2023-07-31T12:01:17;3.67;;;1.92;;
18732;SDS011;9495;51.210;2.934;2023-07-31T12:03:47;3.10;;;1.67;;
18732;SDS011;9495;51.210;2.934;2023-07-31T12:06:17;2.75;;;1.75;;
18732;SDS011;9495;51.210;2.934;2023-07-31T12:08:47;4.78;;;1.77;;
18732;SDS011;9495;51.210;2.934;2023-07-31T12:11:16;4.60;;;1.90;;
18732;SDS011;9495;51.210;2.934;2023-07-31T12:13:46;3.58;;;1.90;;
18732;SDS011;9495;51.210;2.934;2023-07-31T12:16:15;3.60;;;1.45;;
18732;SDS011;9495;51.210;2.934;2023-07-31T12:18:44;4.93;;;1.30;;
18732;SDS011;9495;51.210;2.934;2023-07-31T12:21:13;3.78;;;1.50;;
18732;SDS011;9495;51.210;2.934;2023-07-31T12:23:43;3.42;;;1.70;;
18732;SDS011;9495;51.210;2.934;2023-07-31T12:26:12;2.97;;;1.95;;
18732;SDS011;9495;51.210;2.934;2023-07-31T12:28:42;3.20;;;1.80;;
18732;SDS011;9495;51.210;2.934;2023-07-31T12:31:13;3.08;;;1.73;;
18732;SDS011;9495;51.210;2.934;2023-07-31T12:33:43;2.55;;;1.73;;
18732;SDS011;9495;51.210;2.934;2023-07-31T12:36:13;1.83;;;1.40;;
18732;SDS011;9495;51.210;2.934;2023-07-31T12:38:44;2.00;;;1.40;;
18732;SDS011;9495;51.210;2.934;2023-07-31T12:41:12;1.63;;;1.20;;
18732;SDS011;9495;51.210;2.934;2023-07-31T12:43:42;1.48;;;1.13;;
18732;SDS011;9495;51.210;2.934;2023-07-31T12:46:12;2.20;;;0.90;;
18732;SDS011;9495;51.210;2.934;2023-07-31T12:48:42;2.05;;;1.40;;
18732;SDS011;9495;51.210;2.934;2023-07-31T12:51:11;1.90;;;1.40;;
18732;SDS011;9495;51.210;2.934;2023-07-31T12:53:39;1.58;;;1.10;;
18732;SDS011;9495;51.210;2.934;2023-07-31T12:56:08;1.92;;;1.08;;
18732;SDS011;9495;51.210;2.934;2023-07-31T12:58:37;0.45;;;0.45;;
18732;SDS011;9495;51.210;2.934;2023-07-31T13:01:05;4.38;;;0.88;;
18732;SDS011;9495;51.210;2.934;2023-07-31T13:03:35;3.53;;;0.95;;
18732;SDS011;9495;51.210;2.934;2023-07-31T13:06:04;1.75;;;1.02;;
18732;SDS011;9495;51.210;2.934;2023-07-31T13:08:33;1.48;;;1.00;;
18732;SDS011;9495;51.210;2.934;2023-07-31T13:11:01;2.25;;;0.98;;
18732;SDS011;9495;51.210;2.934;2023-07-31T13:13:31;1.42;;;1.00;;
18732;SDS011;9495;51.210;2.934;2023-07-31T13:15:59;1.38;;;0.88;;
18732;SDS011;9495;51.210;2.934;2023-07-31T13:18:28;1.52;;;1.13;;
18732;SDS011;9495;51.210;2.934;2023-07-31T13:20:58;1.23;;;1.10;;
18732;SDS011;9495;51.210;2.934;2023-07-31T13:23:26;1.00;;;0.90;;
18732;SDS011;9495;51.210;2.934;2023-07-31T13:25:56;1.40;;;0.95;;
18732;SDS011;9495;51.210;2.934;2023-07-31T13:28:24;1.25;;;0.88;;
18732;SDS011;9495;51.210;2.934;2023-07-31T13:30:52;1.27;;;1.15;;
18732;SDS011;9495;51.210;2.934;2023-07-31T13:33:21;1.17;;;1.08;;
18732;SDS011;9495;51.210;2.934;2023-07-31T13:36:04;1.70;;;0.93;;
18732;SDS011;9495;51.210;2.934;2023-07-31T13:38:33;1.67;;;1.05;;
18732;SDS011;9495;51.210;2.934;2023-07-31T13:41:01;1.85;;;1.10;;
18732;SDS011;9495;51.210;2.934;2023-07-31T13:43:30;1.70;;;0.90;;
18732;SDS011;9495;51.210;2.934;2023-07-31T13:45:58;0.80;;;0.80;;
18732;SDS011;9495;51.210;2.934;2023-07-31T13:48:34;1.27;;;0.90;;
18732;SDS011;9495;51.210;2.934;2023-07-31T13:51:04;0.70;;;0.70;;
18732;SDS011;9495;51.210;2.934;2023-07-31T13:53:32;0.70;;;0.70;;
18732;SDS011;9495;51.210;2.934;2023-07-31T13:56:00;0.73;;;0.70;;
18732;SDS011;9495;51.210;2.934;2023-07-31T13:58:29;1.50;;;0.80;;
18732;SDS011;9495;51.210;2.934;2023-07-31T14:00:58;1.20;;;0.60;;
18732;SDS011;9495;51.210;2.934;2023-07-31T14:03:27;1.10;;;0.40;;
18732;SDS011;9495;51.210;2.934;2023-07-31T14:05:55;0.45;;;0.45;;
18732;SDS011;9495;51.210;2.934;2023-07-31T14:08:25;1.02;;;0.60;;
18732;SDS011;9495;51.210;2.934;2023-07-31T14:10:53;1.17;;;0.40;;
18732;SDS011;9495;51.210;2.934;2023-07-31T14:13:22;0.90;;;0.60;;
18732;SDS011;9495;51.210;2.934;2023-07-31T14:15:51;1.30;;;0.50;;
18732;SDS011;9495;51.210;2.934;2023-07-31T14:18:19;0.25;;;0.25;;
18732;SDS011;9495;51.210;2.934;2023-07-31T14:20:49;0.40;;;0.40;;
18732;SDS011;9495;51.210;2.934;2023-07-31T14:23:17;0.30;;;0.30;;
18732;SDS011;9495;51.210;2.934;2023-07-31T14:25:47;0.40;;;0.40;;
18732;SDS011;9495;51.210;2.934;2023-07-31T14:28:16;0.40;;;0.30;;
18732;SDS011;9495;51.210;2.934;2023-07-31T14:30:45;0.63;;;0.40;;
18732;SDS011;9495;51.210;2.934;2023-07-31T14:33:13;0.45;;;0.40;;
18732;SDS011;9495;51.210;2.934;2023-07-31T14:35:42;0.40;;;0.40;;
18732;SDS011;9495;51.210;2.934;2023-07-31T14:38:11;1.25;;;0.45;;
18732;SDS011;9495;51.210;2.934;2023-07-31T14:40:39;0.47;;;0.25;;
18732;SDS011;9495;51.210;2.934;2023-07-31T14:43:10;0.70;;;0.32;;
18732;SDS011;9495;51.210;2.934;2023-07-31T14:45:38;0.63;;;0.52;;
18732;SDS011;9495;51.210;2.934;2023-07-31T14:48:07;0.95;;;0.50;;
18732;SDS011;9495;51.210;2.934;2023-07-31T14:50:35;0.57;;;0.57;;
18732;SDS011;9495;51.210;2.934;2023-07-31T14:53:04;1.02;;;0.30;;
18732;SDS011;9495;51.210;2.934;2023-07-31T14:55:33;1.67;;;0.60;;
18732;SDS011;9495;51.210;2.934;2023-07-31T14:58:01;1.73;;;0.47;;
18732;SDS011;9495;51.210;2.934;2023-07-31T15:00:31;1.30;;;0.43;;
18732;SDS011;9495;51.210;2.934;2023-07-31T15:02:59;0.60;;;0.52;;
18732;SDS011;9495;51.210;2.934;2023-07-31T15:05:28;2.00;;;0.50;;
18732;SDS011;9495;51.210;2.934;2023-07-31T15:07:56;1.00;;;0.57;;